Time;durP1;ratioP1;P1;durP2;ratioP2;P2;SDS_P1;SDS_P2;PMS_P1;PMS_P2;Temp;Humidity;BMP_temperature;BMP_pressure;BME280_temperature;BME280_humidity;BME280_pressure;Samples;Min_cycle;Max_cycle;Signal;HPM_P1;HPM_P2
2021/12/20 00:01:13;;;;;;;24.50;12.20;;;7.60;98.40;;;;;;5064916;28;20522;-48
2021/12/20 00:03:40;;;;;;;20.90;11.67;;;7.60;98.20;;;;;;5080748;28;21073;-47
2021/12/20 00:06:07;;;;;;;19.37;9.83;;;7.60;98.10;;;;;;5065944;28;20478;-47
2021/12/20 00:08:36;;;;;;;23.67;10.80;;;7.50;98.00;;;;;;5063534;28;20481;-46
2021/12/20 00:11:03;;;;;;;23.60;11.43;;;7.50;98.20;;;;;;5069391;28;20480;-47
2021/12/20 00:13:30;;;;;;;25.13;10.20;;;7.50;98.20;;;;;;5066720;28;20577;-47
2021/12/20 00:15:57;;;;;;;20.57;10.80;;;7.50;98.20;;;;;;5063405;28;20473;-47
2021/12/20 00:18:24;;;;;;;19.77;10.93;;;7.50;98.30;;;;;;5064586;28;20487;-47
2021/12/20 00:20:51;;;;;;;22.07;11.50;;;7.50;98.20;;;;;;5065274;28;20486;-47
2021/12/20 00:23:17;;;;;;;17.07;10.40;;;7.60;98.20;;;;;;5060291;28;20941;-47
2021/12/20 00:25:48;;;;;;;19.40;10.70;;;7.60;98.20;;;;;;5080197;28;20830;-52
2021/12/20 00:28:16;;;;;;;20.67;11.33;;;7.60;98.30;;;;;;5068599;28;20593;-51
2021/12/20 00:30:43;;;;;;;22.90;11.67;;;7.60;98.20;;;;;;5074239;28;21046;-47
2021/12/20 00:33:09;;;;;;;19.90;11.10;;;7.60;98.00;;;;;;5061163;28;20474;-47
2021/12/20 00:35:36;;;;;;;22.20;12.00;;;7.60;98.10;;;;;;5063263;28;20971;-47
2021/12/20 00:40:48;;;;;;;19.20;11.83;;;7.60;98.20;;;;;;5040072;28;20490;-47
2021/12/20 00:43:16;;;;;;;21.43;10.67;;;7.60;98.10;;;;;;5080325;28;20866;-47
2021/12/20 00:45:43;;;;;;;25.80;11.63;;;7.60;98.10;;;;;;5076557;28;20487;-47
2021/12/20 00:48:10;;;;;;;26.30;12.30;;;7.60;98.10;;;;;;5073652;28;20487;-47
2021/12/20 00:50:38;;;;;;;22.27;12.10;;;7.60;98.10;;;;;;5057187;28;21158;-47
2021/12/20 00:53:06;;;;;;;20.00;10.70;;;7.60;98.10;;;;;;5077833;28;20488;-47
2021/12/20 00:55:32;;;;;;;20.33;11.13;;;7.60;98.00;;;;;;5075796;28;20479;-47
2021/12/20 00:58:01;;;;;;;22.77;11.80;;;7.60;98.10;;;;;;5076829;28;20484;-47
2021/12/20 01:00:31;;;;;;;24.10;11.93;;;7.60;98.10;;;;;;5082328;28;20481;-48
2021/12/20 01:02:58;;;;;;;23.60;11.80;;;7.60;98.00;;;;;;5078228;28;20493;-48
2021/12/20 01:05:27;;;;;;;20.43;10.87;;;7.60;98.00;;;;;;5078161;28;20513;-47
2021/12/20 01:07:57;;;;;;;21.33;11.00;;;7.60;97.90;;;;;;5077422;28;20956;-47
2021/12/20 01:10:25;;;;;;;23.77;11.10;;;7.50;97.90;;;;;;5076585;28;20815;-47
2021/12/20 01:12:54;;;;;;;23.97;12.23;;;7.40;98.00;;;;;;5076074;28;20483;-47
2021/12/20 01:15:31;;;;;;;21.17;12.07;;;7.30;98.10;;;;;;5082333;28;20983;-47
2021/12/20 01:17:57;;;;;;;22.37;11.50;;;7.20;98.40;;;;;;5074619;28;20504;-47
2021/12/20 01:20:24;;;;;;;19.20;10.60;;;7.30;98.60;;;;;;5076896;28;21141;-47
2021/12/20 01:22:52;;;;;;;17.77;9.80;;;7.30;98.50;;;;;;5080485;28;20488;-47
2021/12/20 01:25:21;;;;;;;22.57;10.87;;;7.30;98.60;;;;;;5077952;28;20946;-47
2021/12/20 01:27:49;;;;;;;19.07;10.23;;;7.40;98.60;;;;;;5080816;28;20487;-47
2021/12/20 01:30:17;;;;;;;20.13;11.00;;;7.40;98.50;;;;;;5082210;28;20500;-47
2021/12/20 01:32:46;;;;;;;14.57;8.40;;;7.50;98.50;;;;;;5073797;28;20492;-48
2021/12/20 01:35:14;;;;;;;21.83;10.10;;;7.50;98.50;;;;;;5090471;28;20489;-47
2021/12/20 01:37:41;;;;;;;15.93;9.27;;;7.50;98.40;;;;;;5084016;28;20525;-47
2021/12/20 01:40:12;;;;;;;21.23;10.83;;;7.50;98.50;;;;;;5075803;27;20531;-47
2021/12/20 01:42:40;;;;;;;20.83;9.17;;;7.50;98.50;;;;;;5085385;28;20489;-49
2021/12/20 01:45:12;;;;;;;18.90;10.07;;;7.50;98.30;;;;;;5081019;28;20492;-47
2021/12/20 01:47:43;;;;;;;18.93;9.13;;;7.40;98.30;;;;;;5080337;28;20478;-47
2021/12/20 01:50:18;;;;;;;22.97;11.37;;;7.20;98.30;;;;;;5051834;28;20947;-47
2021/12/20 01:52:44;;;;;;;24.10;11.70;;;7.00;98.60;;;;;;5078702;28;20501;-47
2021/12/20 01:55:14;;;;;;;21.43;11.33;;;7.00;98.80;;;;;;5082865;28;20493;-47
2021/12/20 01:57:41;;;;;;;20.13;11.17;;;7.00;98.90;;;;;;5051828;28;20940;-47
2021/12/20 02:00:11;;;;;;;16.97;9.90;;;7.10;98.80;;;;;;5071954;28;20622;-47
2021/12/20 02:02:38;;;;;;;17.60;9.47;;;7.10;98.60;;;;;;5080488;28;20497;-47
2021/12/20 02:05:16;;;;;;;21.10;10.77;;;7.10;98.60;;;;;;5080259;28;20489;-47
2021/12/20 02:07:52;;;;;;;20.90;11.00;;;7.00;98.60;;;;;;5082178;28;20471;-47
2021/12/20 02:10:19;;;;;;;21.43;10.30;;;7.10;98.70;;;;;;5065664;28;21073;-47
2021/12/20 02:12:45;;;;;;;20.23;10.17;;;7.10;98.80;;;;;;5093325;28;20474;-47
2021/12/20 02:15:13;;;;;;;20.10;11.10;;;7.20;98.80;;;;;;5073810;28;20494;-47
2021/12/20 02:17:41;;;;;;;24.00;11.43;;;7.20;98.70;;;;;;5086361;27;20480;-47
2021/12/20 02:20:11;;;;;;;21.17;10.20;;;7.20;98.90;;;;;;5070750;28;20484;-51
2021/12/20 02:22:38;;;;;;;16.07;9.00;;;7.20;98.70;;;;;;5086223;28;20478;-47
2021/12/20 02:25:07;;;;;;;16.17;8.87;;;7.20;98.80;;;;;;5065041;28;20519;-48
2021/12/20 02:27:33;;;;;;;20.80;10.30;;;7.30;98.90;;;;;;5095860;28;21042;-47
2021/12/20 02:30:07;;;;;;;16.37;10.47;;;7.30;98.90;;;;;;5077271;28;20487;-47
2021/12/20 02:38:17;;;;;;;16.83;9.60;;;7.30;98.60;;;;;;5078668;28;20491;-47
2021/12/20 02:40:45;;;;;;;21.70;10.90;;;7.10;98.60;;;;;;5073613;28;20503;-47
2021/12/20 02:43:16;;;;;;;20.23;10.27;;;7.00;98.70;;;;;;5077868;28;21000;-46
2021/12/20 02:45:43;;;;;;;18.60;10.00;;;7.00;99.10;;;;;;5076546;28;20483;-47
2021/12/20 02:48:10;;;;;;;14.77;9.17;;;7.10;99.10;;;;;;5077468;28;21025;-47
2021/12/20 02:50:38;;;;;;;19.73;10.90;;;7.10;99.00;;;;;;5079920;28;20486;-47
2021/12/20 02:53:05;;;;;;;18.20;10.07;;;7.20;98.90;;;;;;5082010;28;20491;-47
2021/12/20 02:55:32;;;;;;;22.97;10.37;;;7.20;98.70;;;;;;5077786;28;20962;-47
2021/12/20 02:57:58;;;;;;;22.27;12.60;;;7.00;98.70;;;;;;5076838;28;20757;-47
2021/12/20 03:00:25;;;;;;;24.70;12.27;;;6.90;98.90;;;;;;5074405;28;20483;-47
2021/12/20 03:02:52;;;;;;;17.67;10.23;;;6.90;99.00;;;;;;5078933;28;20487;-47
2021/12/20 03:05:19;;;;;;;29.13;12.60;;;7.00;99.10;;;;;;5080847;28;20483;-47
2021/12/20 03:07:50;;;;;;;18.27;10.80;;;7.10;99.10;;;;;;5074949;28;20484;-47
2021/12/20 03:10:19;;;;;;;20.70;10.17;;;7.10;98.90;;;;;;5074446;28;20564;-47
2021/12/20 03:12:48;;;;;;;22.43;9.37;;;7.10;98.70;;;;;;5080617;28;21238;-47
2021/12/20 03:18:37;;;;;;;17.00;8.90;;;7.10;98.90;;;;;;5071822;28;20474;-47
2021/12/20 03:21:03;;;;;;;17.67;9.57;;;7.00;98.80;;;;;;5088610;27;20481;-49
2021/12/20 03:23:32;;;;;;;14.87;9.10;;;6.90;98.90;;;;;;5082797;28;20476;-47
2021/12/20 03:25:58;;;;;;;20.50;10.60;;;6.80;99.00;;;;;;5081925;28;20484;-47
2021/12/20 03:28:25;;;;;;;21.57;11.70;;;6.70;99.10;;;;;;5081188;28;20473;-47
2021/12/20 03:30:52;;;;;;;21.40;10.30;;;6.70;99.40;;;;;;5082643;28;20477;-47
2021/12/20 03:33:19;;;;;;;21.40;11.47;;;6.80;99.30;;;;;;5076745;28;20534;-47
2021/12/20 03:35:46;;;;;;;22.57;10.10;;;6.90;99.40;;;;;;5079078;28;20908;-47
2021/12/20 03:38:13;;;;;;;17.77;9.87;;;7.00;99.30;;;;;;5082445;28;20469;-47
2021/12/20 03:40:41;;;;;;;19.37;10.57;;;7.00;99.10;;;;;;5081722;28;20541;-47
2021/12/20 03:43:10;;;;;;;22.60;11.90;;;7.10;99.10;;;;;;5081042;28;20489;-47
2021/12/20 03:45:37;;;;;;;19.67;10.90;;;7.20;99.00;;;;;;5080750;28;20872;-47
2021/12/20 03:48:05;;;;;;;25.27;11.10;;;7.20;99.00;;;;;;5083053;28;20472;-48
2021/12/20 03:50:31;;;;;;;18.93;11.10;;;7.20;98.90;;;;;;5084321;28;20832;-47
2021/12/20 03:52:58;;;;;;;22.00;11.77;;;7.20;98.80;;;;;;5081984;28;20481;-47
2021/12/20 03:55:25;;;;;;;21.60;11.43;;;7.20;98.60;;;;;;5080161;28;20492;-47
2021/12/20 03:57:53;;;;;;;22.20;11.17;;;7.10;98.80;;;;;;5082299;28;20481;-47
2021/12/20 04:00:20;;;;;;;17.40;9.60;;;7.10;98.80;;;;;;5082213;28;20493;-47
2021/12/20 04:02:48;;;;;;;16.27;8.50;;;7.20;98.80;;;;;;5081102;28;20998;-47
2021/12/20 04:05:15;;;;;;;18.40;10.00;;;7.10;98.70;;;;;;5081856;28;20481;-48
2021/12/20 04:07:42;;;;;;;19.77;9.47;;;7.10;98.70;;;;;;5080417;28;20560;-47
2021/12/20 04:10:10;;;;;;;16.60;9.30;;;7.20;98.70;;;;;;5080809;28;20488;-47
2021/12/20 04:12:37;;;;;;;21.33;9.10;;;7.20;98.70;;;;;;5079312;28;20488;-47
2021/12/20 04:15:06;;;;;;;15.70;9.60;;;7.20;98.70;;;;;;5078322;28;20489;-48
2021/12/20 04:17:33;;;;;;;14.93;8.77;;;7.20;98.70;;;;;;5075683;28;20479;-47
2021/12/20 04:20:00;;;;;;;17.20;8.73;;;7.20;98.70;;;;;;5076793;28;20904;-47
2021/12/20 04:22:26;;;;;;;21.30;10.23;;;7.20;98.80;;;;;;5076997;28;20497;-47
2021/12/20 04:24:53;;;;;;;19.27;10.30;;;7.10;98.70;;;;;;5090578;27;20481;-47
2021/12/20 04:27:20;;;;;;;25.37;12.40;;;7.00;98.70;;;;;;5080731;28;20480;-47
2021/12/20 04:29:47;;;;;;;22.87;11.00;;;6.90;99.10;;;;;;5080717;28;20490;-48
2021/12/20 04:32:15;;;;;;;17.73;10.90;;;7.00;99.10;;;;;;5081291;28;20489;-47
2021/12/20 04:34:42;;;;;;;22.13;11.27;;;7.00;99.30;;;;;;5045799;28;20473;-47
2021/12/20 04:37:09;;;;;;;20.53;10.70;;;7.00;98.90;;;;;;5063677;28;21079;-48
2021/12/20 04:39:36;;;;;;;19.03;10.40;;;7.00;98.80;;;;;;5079991;28;20567;-47
2021/12/20 04:42:03;;;;;;;22.10;11.00;;;7.10;98.90;;;;;;5081063;28;20488;-47
2021/12/20 04:44:30;;;;;;;19.20;9.37;;;7.10;98.80;;;;;;5082630;28;20483;-47
2021/12/20 04:46:57;;;;;;;20.20;10.33;;;7.10;98.80;;;;;;5081781;28;20481;-47
2021/12/20 04:49:25;;;;;;;19.60;10.20;;;7.10;98.80;;;;;;5082282;28;20477;-47
2021/12/20 04:51:53;;;;;;;18.30;9.40;;;7.20;98.70;;;;;;5081635;28;20533;-47
2021/12/20 04:54:20;;;;;;;16.20;9.40;;;7.20;98.70;;;;;;5081794;28;20484;-47
2021/12/20 04:56:47;;;;;;;16.27;10.30;;;7.20;98.70;;;;;;5078472;28;20494;-50
2021/12/20 04:59:14;;;;;;;13.40;8.30;;;7.20;98.70;;;;;;5081127;28;20546;-47
2021/12/20 05:01:41;;;;;;;16.43;9.90;;;7.00;98.50;;;;;;5078983;28;20549;-46
2021/12/20 05:04:07;;;;;;;16.73;9.10;;;6.90;98.80;;;;;;5081373;28;20549;-46
2021/12/20 05:06:35;;;;;;;17.77;9.93;;;6.70;98.90;;;;;;5078381;28;20514;-47
2021/12/20 05:09:04;;;;;;;18.93;11.07;;;6.70;99.20;;;;;;5080653;28;20480;-47
2021/12/20 05:11:33;;;;;;;16.40;9.17;;;6.70;99.20;;;;;;5084666;28;20479;-46
2021/12/20 05:14:00;;;;;;;16.27;9.03;;;6.70;99.00;;;;;;5081306;28;20481;-47
2021/12/20 05:16:27;;;;;;;13.60;8.50;;;6.80;99.00;;;;;;5078330;28;20858;-47
2021/12/20 05:18:54;;;;;;;13.40;7.53;;;6.90;99.10;;;;;;5077220;28;20546;-47
2021/12/20 05:21:21;;;;;;;18.50;8.73;;;6.90;99.00;;;;;;5071168;28;20847;-47
2021/12/20 05:23:49;;;;;;;17.13;7.80;;;6.90;99.10;;;;;;5066630;28;20972;-46
2021/12/20 05:26:16;;;;;;;15.43;8.00;;;7.00;99.00;;;;;;5072399;28;20490;-47
2021/12/20 05:28:42;;;;;;;21.10;11.90;;;7.00;98.90;;;;;;5079821;28;20484;-46
2021/12/20 05:31:09;;;;;;;18.43;9.90;;;6.90;98.70;;;;;;5076487;28;20487;-47
2021/12/20 05:33:36;;;;;;;18.83;9.30;;;6.80;98.70;;;;;;5078504;28;20490;-46
2021/12/20 05:36:04;;;;;;;17.30;9.83;;;6.80;98.90;;;;;;5070717;28;20494;-46
2021/12/20 05:38:30;;;;;;;20.47;11.57;;;6.90;98.80;;;;;;5064941;28;20487;-47
2021/12/20 05:40:59;;;;;;;18.87;9.73;;;6.90;98.70;;;;;;5087076;28;20476;-47
2021/12/20 05:43:25;;;;;;;14.20;7.87;;;7.00;98.80;;;;;;5076124;28;20493;-46
2021/12/20 05:45:52;;;;;;;13.33;8.17;;;7.00;98.80;;;;;;5070280;28;20876;-47
2021/12/20 05:48:19;;;;;;;14.10;8.63;;;7.00;98.80;;;;;;5074333;28;20480;-47
2021/12/20 05:50:45;;;;;;;14.27;8.40;;;7.00;98.80;;;;;;5077870;28;20489;-47
2021/12/20 05:53:12;;;;;;;18.47;9.17;;;7.00;98.80;;;;;;5076290;28;20482;-47
2021/12/20 05:55:39;;;;;;;13.90;8.70;;;7.00;98.80;;;;;;5071581;28;20494;-47
2021/12/20 05:58:07;;;;;;;16.23;11.40;;;7.00;98.60;;;;;;5072305;28;20473;-47
2021/12/20 06:00:34;;;;;;;14.40;9.03;;;7.00;98.60;;;;;;5079457;28;20535;-47
2021/12/20 06:03:01;;;;;;;18.90;10.93;;;6.90;98.50;;;;;;5083148;28;20514;-47
2021/12/20 06:05:27;;;;;;;12.47;8.40;;;6.90;98.30;;;;;;5072496;28;20888;-47
2021/12/20 06:07:56;;;;;;;18.77;10.60;;;7.00;98.50;;;;;;5070740;28;20499;-47
2021/12/20 06:10:23;;;;;;;13.20;8.00;;;6.90;98.10;;;;;;5079557;28;20538;-47
2021/12/20 06:12:50;;;;;;;13.80;8.50;;;7.00;98.40;;;;;;5083822;28;20478;-47
2021/12/20 06:15:18;;;;;;;17.40;9.17;;;6.90;98.20;;;;;;5072205;28;20491;-47
2021/12/20 06:17:45;;;;;;;10.50;7.40;;;6.90;98.40;;;;;;5073620;28;20568;-47
2021/12/20 06:20:13;;;;;;;17.43;8.43;;;6.90;98.10;;;;;;5071253;28;20486;-47
2021/12/20 06:22:41;;;;;;;28.17;16.23;;;6.80;98.20;;;;;;5076626;28;20507;-47
2021/12/20 06:25:09;;;;;;;79.37;37.57;;;6.80;98.20;;;;;;5078874;28;20488;-47
2021/12/20 06:27:35;;;;;;;110.07;57.33;;;6.80;98.20;;;;;;5046397;28;20495;-47
2021/12/20 06:30:03;;;;;;;107.67;54.50;;;6.80;98.20;;;;;;5080971;28;20536;-47
2021/12/20 06:32:31;;;;;;;59.87;30.87;;;6.80;98.30;;;;;;5081147;27;20605;-47
2021/12/20 06:34:58;;;;;;;29.47;15.67;;;6.80;98.10;;;;;;5072087;28;20482;-47
2021/12/20 06:37:25;;;;;;;19.20;11.00;;;6.80;98.00;;;;;;5080061;28;20950;-46
2021/12/20 06:39:52;;;;;;;17.33;10.13;;;6.80;97.80;;;;;;5076910;28;20484;-47
2021/12/20 06:42:18;;;;;;;21.33;11.40;;;6.80;97.50;;;;;;5079627;28;20485;-47
2021/12/20 06:44:45;;;;;;;25.17;14.60;;;6.90;97.50;;;;;;5079302;28;20478;-47
2021/12/20 06:47:13;;;;;;;24.50;13.93;;;6.90;97.70;;;;;;5074212;28;20468;-47
2021/12/20 06:49:41;;;;;;;20.10;11.67;;;6.90;98.00;;;;;;5077766;28;20469;-47
2021/12/20 06:52:08;;;;;;;17.57;12.23;;;6.90;97.90;;;;;;5078853;28;20495;-47
2021/12/20 06:54:35;;;;;;;21.30;13.07;;;6.80;97.70;;;;;;5063626;28;20514;-47
2021/12/20 06:57:02;;;;;;;50.17;28.37;;;6.70;97.70;;;;;;5075361;28;21097;-47
2021/12/20 06:59:29;;;;;;;35.70;22.10;;;6.80;98.00;;;;;;5069549;28;20486;-47
2021/12/20 07:01:56;;;;;;;30.33;16.87;;;6.80;97.90;;;;;;5077606;28;20491;-48
2021/12/20 07:04:23;;;;;;;23.10;11.47;;;6.80;97.90;;;;;;5076320;28;21002;-47
2021/12/20 07:06:52;;;;;;;19.73;12.13;;;6.90;97.80;;;;;;5036679;28;20479;-47
2021/12/20 07:09:18;;;;;;;22.13;12.17;;;6.90;97.70;;;;;;5085195;28;20522;-47
2021/12/20 07:11:45;;;;;;;16.30;10.60;;;6.90;97.70;;;;;;5070265;28;20507;-47
2021/12/20 07:14:12;;;;;;;14.40;9.50;;;6.90;97.90;;;;;;5070391;28;20492;-47
2021/12/20 07:16:40;;;;;;;17.50;12.90;;;6.80;97.50;;;;;;5076235;28;20483;-47
2021/12/20 07:19:08;;;;;;;12.67;9.03;;;6.70;97.50;;;;;;5081694;28;20488;-47
2021/12/20 07:21:35;;;;;;;17.43;7.60;;;6.70;97.60;;;;;;5083757;28;21180;-47
2021/12/20 07:24:03;;;;;;;11.23;5.60;;;6.70;97.60;;;;;;5078163;28;20483;-55
2021/12/20 07:26:31;;;;;;;22.60;10.03;;;6.80;97.40;;;;;;5065771;28;21439;-47
2021/12/20 07:28:58;;;;;;;10.27;7.90;;;6.80;97.40;;;;;;5091187;28;20487;-47
2021/12/20 07:31:25;;;;;;;18.50;7.70;;;6.90;97.70;;;;;;5057495;28;20532;-47
2021/12/20 07:33:51;;;;;;;18.63;7.73;;;6.90;97.70;;;;;;5071050;28;20538;-47
2021/12/20 07:36:20;;;;;;;18.97;9.93;;;6.90;97.70;;;;;;5070221;28;20992;-47
2021/12/20 07:38:47;;;;;;;20.00;11.57;;;6.90;97.60;;;;;;5076848;28;20553;-47
2021/12/20 07:41:18;;;;;;;17.87;10.97;;;6.90;97.50;;;;;;5079926;28;20481;-48
2021/12/20 07:43:45;;;;;;;17.50;9.03;;;6.90;97.70;;;;;;5079139;28;20478;-49
2021/12/20 07:46:12;;;;;;;87.83;33.87;;;6.90;97.70;;;;;;5071860;28;20511;-47
2021/12/20 07:48:39;;;;;;;98.50;36.77;;;6.90;97.70;;;;;;5080967;28;20484;-47
2021/12/20 07:51:05;;;;;;;37.50;18.30;;;7.00;97.70;;;;;;5071436;28;20496;-52
2021/12/20 07:53:32;;;;;;;21.40;11.33;;;7.00;97.60;;;;;;5067411;28;20488;-47
2021/12/20 07:55:59;;;;;;;12.60;6.53;;;7.00;97.30;;;;;;5072410;28;20491;-47
2021/12/20 07:58:27;;;;;;;8.90;4.97;;;7.00;97.30;;;;;;5078954;28;20473;-47
2021/12/20 08:00:55;;;;;;;11.30;7.87;;;7.10;97.30;;;;;;5073748;28;20477;-48
2021/12/20 08:03:21;;;;;;;15.00;9.87;;;7.10;97.40;;;;;;5071387;28;20483;-47
2021/12/20 08:05:48;;;;;;;14.77;8.60;;;7.10;97.50;;;;;;5090032;28;20492;-47
2021/12/20 08:08:15;;;;;;;15.30;7.03;;;7.10;97.60;;;;;;5078986;28;20493;-47
2021/12/20 08:10:42;;;;;;;12.47;6.10;;;7.10;97.60;;;;;;5063480;28;20903;-47
2021/12/20 08:13:09;;;;;;;13.90;9.13;;;7.10;97.40;;;;;;5081258;28;21049;-48
2021/12/20 08:19:02;;;;;;;11.67;7.50;;;6.90;96.70;;;;;;5056895;28;20481;-47
2021/12/20 08:21:29;;;;;;;21.90;8.67;;;6.90;97.10;;;;;;5073128;28;20484;-47
2021/12/20 08:27:18;;;;;;;13.77;8.10;;;7.00;97.40;;;;;;5039805;28;20483;-47
2021/12/20 08:29:45;;;;;;;11.60;7.80;;;7.10;97.70;;;;;;5091627;28;20479;-48
2021/12/20 08:32:12;;;;;;;15.27;8.37;;;7.20;97.70;;;;;;5077722;28;20865;-48
2021/12/20 08:34:40;;;;;;;13.03;8.87;;;7.10;97.50;;;;;;5078977;28;20893;-47
2021/12/20 08:37:07;;;;;;;12.83;8.20;;;7.00;98.30;;;;;;5073640;28;20497;-47
2021/12/20 08:39:34;;;;;;;11.77;6.97;;;7.10;98.20;;;;;;5080692;28;20482;-47
2021/12/20 08:42:03;;;;;;;13.67;7.43;;;7.20;98.30;;;;;;5081016;28;20509;-47
2021/12/20 08:44:30;;;;;;;8.80;7.07;;;7.30;98.30;;;;;;5079499;28;20489;-47
2021/12/20 08:46:58;;;;;;;13.63;8.60;;;7.30;98.30;;;;;;5078922;28;20501;-47
2021/12/20 08:49:25;;;;;;;14.73;8.50;;;7.40;98.30;;;;;;5080441;28;20493;-47
2021/12/20 08:51:54;;;;;;;21.53;12.80;;;7.50;98.40;;;;;;5080964;28;20476;-47
2021/12/20 08:54:23;;;;;;;15.53;9.60;;;7.50;98.30;;;;;;5077702;28;20475;-47
2021/12/20 08:56:50;;;;;;;11.30;5.97;;;7.60;98.20;;;;;;5076098;28;20875;-46
2021/12/20 08:59:16;;;;;;;11.10;5.43;;;7.60;97.50;;;;;;5077217;28;20488;-56
2021/12/20 09:01:43;;;;;;;11.93;5.30;;;7.70;96.90;;;;;;5081629;28;20536;-46
2021/12/20 09:04:10;;;;;;;9.40;5.90;;;7.60;96.70;;;;;;5079945;28;20499;-47
2021/12/20 09:06:40;;;;;;;8.13;4.63;;;7.70;96.80;;;;;;5070786;28;20751;-46
2021/12/20 09:09:09;;;;;;;7.60;5.23;;;7.60;96.60;;;;;;5070127;28;20543;-47
2021/12/20 09:11:36;;;;;;;8.53;4.60;;;7.60;96.50;;;;;;5078134;28;20511;-47
2021/12/20 09:14:03;;;;;;;7.17;5.03;;;7.60;96.50;;;;;;5076651;28;20873;-47
2021/12/20 09:16:30;;;;;;;9.57;6.77;;;7.60;96.20;;;;;;5073702;28;20580;-47
2021/12/20 09:18:57;;;;;;;9.93;5.67;;;7.60;96.30;;;;;;5081618;28;20483;-47
2021/12/20 09:21:24;;;;;;;8.60;5.60;;;7.60;96.40;;;;;;5083414;28;20481;-47
2021/12/20 09:23:51;;;;;;;6.40;5.43;;;7.60;96.60;;;;;;5075349;28;20520;-47
2021/12/20 09:26:20;;;;;;;12.33;6.17;;;7.60;96.50;;;;;;5074178;28;21489;-47
2021/12/20 09:28:47;;;;;;;10.20;5.93;;;7.60;96.80;;;;;;5075756;28;20530;-46
2021/12/20 09:31:14;;;;;;;13.77;5.50;;;7.60;96.60;;;;;;5080404;28;20475;-47
2021/12/20 09:33:41;;;;;;;11.43;6.00;;;7.70;96.60;;;;;;5080863;28;20485;-47
2021/12/20 09:36:08;;;;;;;7.53;5.37;;;7.70;96.50;;;;;;5073173;28;20480;-47
2021/12/20 09:38:35;;;;;;;7.57;4.63;;;7.80;96.60;;;;;;5076115;28;20484;-47
2021/12/20 09:41:14;;;;;;;16.43;5.47;;;7.80;96.50;;;;;;5078581;28;20480;-47
2021/12/20 09:43:45;;;;;;;9.53;5.73;;;7.80;96.40;;;;;;5075325;28;20496;-46
2021/12/20 09:46:12;;;;;;;8.47;5.03;;;7.70;96.30;;;;;;5075814;28;20876;-47
2021/12/20 09:48:42;;;;;;;9.17;4.97;;;7.70;96.50;;;;;;5081610;28;20480;-47
2021/12/20 09:51:09;;;;;;;7.47;4.83;;;7.80;96.60;;;;;;5084592;28;20478;-47
2021/12/20 09:53:35;;;;;;;9.10;5.27;;;7.80;96.50;;;;;;5084072;28;20990;-47
2021/12/20 09:56:03;;;;;;;8.67;5.80;;;7.90;96.40;;;;;;5078734;28;20497;-47
2021/12/20 09:58:35;;;;;;;9.90;4.87;;;7.80;96.20;;;;;;5081469;28;20499;-47
2021/12/20 10:01:04;;;;;;;11.17;5.33;;;7.80;96.40;;;;;;5082655;28;20512;-47
2021/12/20 10:03:31;;;;;;;9.20;5.20;;;7.90;96.50;;;;;;5090552;28;20489;-47
2021/12/20 10:05:58;;;;;;;6.83;4.43;;;7.90;96.50;;;;;;5072305;28;20486;-48
2021/12/20 10:08:32;;;;;;;6.00;4.30;;;8.00;96.40;;;;;;5086298;28;20535;-47
2021/12/20 10:11:00;;;;;;;13.77;5.67;;;8.00;96.40;;;;;;5073754;28;20481;-47
2021/12/20 10:13:29;;;;;;;8.70;5.00;;;8.00;96.60;;;;;;5094218;28;20480;-47
2021/12/20 10:16:00;;;;;;;7.90;4.10;;;8.00;96.30;;;;;;5073410;28;20478;-49
2021/12/20 10:18:32;;;;;;;11.07;4.97;;;8.10;96.30;;;;;;5081106;28;20477;-47
2021/12/20 10:21:02;;;;;;;10.13;4.80;;;8.10;96.30;;;;;;5084065;28;20486;-47
2021/12/20 10:23:31;;;;;;;11.83;5.20;;;8.10;96.20;;;;;;5079828;28;20563;-47
2021/12/20 10:26:00;;;;;;;7.47;4.70;;;8.10;96.00;;;;;;5075660;28;20499;-47
2021/12/20 10:28:32;;;;;;;9.87;3.93;;;8.10;96.00;;;;;;5077146;28;20970;-51
2021/12/20 10:31:01;;;;;;;11.13;4.00;;;8.10;96.20;;;;;;5085543;28;20573;-47
2021/12/20 10:33:29;;;;;;;9.37;4.37;;;8.10;96.00;;;;;;5078390;28;20490;-46
2021/12/20 10:36:01;;;;;;;6.13;3.20;;;8.10;95.90;;;;;;5077547;28;20557;-46
2021/12/20 10:38:31;;;;;;;5.17;3.90;;;8.10;95.80;;;;;;5053781;28;20479;-46
2021/12/20 10:41:02;;;;;;;5.63;3.93;;;8.10;96.00;;;;;;5070627;28;20497;-47
2021/12/20 10:43:35;;;;;;;10.67;4.37;;;8.10;96.20;;;;;;5087109;28;20502;-46
2021/12/20 10:46:10;;;;;;;9.80;4.57;;;8.20;96.00;;;;;;5062120;28;20589;-50
2021/12/20 10:48:38;;;;;;;6.57;3.30;;;8.20;95.90;;;;;;5087075;28;20487;-47
2021/12/20 10:51:05;;;;;;;13.40;4.03;;;8.20;95.60;;;;;;5078953;28;20486;-47
2021/12/20 10:53:32;;;;;;;9.23;4.20;;;8.20;95.50;;;;;;5078335;28;21204;-46
2021/12/20 10:56:02;;;;;;;11.67;4.20;;;8.20;95.70;;;;;;5079632;28;20487;-46
2021/12/20 10:58:34;;;;;;;18.57;5.00;;;8.30;96.10;;;;;;5077439;28;20501;-47
2021/12/20 11:01:19;;;;;;;8.57;4.77;;;8.30;96.00;;;;;;5081215;28;20546;-46
2021/12/20 11:04:02;;;;;;;7.60;4.67;;;8.30;96.20;;;;;;5074686;28;20478;-47
2021/12/20 11:06:57;;;;;;;9.47;4.63;;;8.40;96.20;;;;;;5073803;28;20473;-47
2021/12/20 11:09:26;;;;;;;14.70;4.27;;;8.40;96.00;;;;;;5076180;28;20490;-47
2021/12/20 11:11:55;;;;;;;10.37;4.07;;;8.50;95.60;;;;;;5079347;28;20561;-47
2021/12/20 11:14:26;;;;;;;16.63;4.43;;;8.50;95.90;;;;;;5083700;28;20483;-47
2021/12/20 11:16:55;;;;;;;8.70;5.00;;;8.60;95.90;;;;;;5075215;28;20480;-46
2021/12/20 11:19:28;;;;;;;7.77;4.67;;;8.60;95.80;;;;;;5088184;28;20484;-47
2021/12/20 11:22:02;;;;;;;13.53;4.43;;;8.70;95.60;;;;;;5082161;28;21263;-46
2021/12/20 11:24:31;;;;;;;9.80;3.83;;;8.70;95.50;;;;;;5074605;28;21117;-47
2021/12/20 11:26:59;;;;;;;12.00;4.80;;;8.70;95.40;;;;;;5066674;28;20490;-47
2021/12/20 11:29:27;;;;;;;15.37;5.20;;;8.70;95.20;;;;;;5071371;28;20604;-47
2021/12/20 11:31:55;;;;;;;13.57;5.53;;;8.70;95.20;;;;;;5078850;28;20716;-47
2021/12/20 11:34:22;;;;;;;11.17;4.07;;;8.70;95.40;;;;;;5083299;28;20483;-47
2021/12/20 11:36:51;;;;;;;7.30;3.87;;;8.80;95.70;;;;;;5070407;28;20479;-47
2021/12/20 11:39:18;;;;;;;7.87;3.53;;;8.90;95.30;;;;;;5053576;28;20488;-47
2021/12/20 11:41:45;;;;;;;8.50;3.97;;;8.90;95.20;;;;;;5075030;28;20909;-46
2021/12/20 11:44:15;;;;;;;10.23;3.90;;;8.90;94.60;;;;;;5084504;28;20488;-47
2021/12/20 11:46:57;;;;;;;12.50;3.93;;;9.00;95.10;;;;;;5076388;28;20515;-47
2021/12/20 11:49:25;;;;;;;11.00;4.53;;;9.00;95.00;;;;;;5064476;28;20475;-47
2021/12/20 11:52:05;;;;;;;13.23;5.20;;;9.00;94.50;;;;;;5081032;28;20483;-47
2021/12/20 11:54:41;;;;;;;11.80;5.17;;;9.00;94.40;;;;;;5064733;28;20493;-47
2021/12/20 11:57:24;;;;;;;10.50;5.03;;;9.00;94.60;;;;;;5064326;28;21128;-47
2021/12/20 11:59:54;;;;;;;8.90;4.20;;;9.00;94.60;;;;;;5079430;28;20475;-47
2021/12/20 12:02:26;;;;;;;11.33;4.73;;;9.00;94.20;;;;;;5072200;28;21877;-47
2021/12/20 12:05:01;;;;;;;8.60;4.43;;;9.00;94.60;;;;;;5086892;28;20492;-47
2021/12/20 12:07:31;;;;;;;9.57;4.40;;;8.80;93.70;;;;;;5070849;28;20486;-47
2021/12/20 12:10:00;;;;;;;12.63;4.50;;;8.70;93.80;;;;;;5083672;28;20475;-46
2021/12/20 12:12:29;;;;;;;13.53;5.57;;;8.70;93.90;;;;;;5075986;28;20490;-47
2021/12/20 12:15:05;;;;;;;11.97;3.87;;;8.70;94.30;;;;;;5080246;28;20471;-46
2021/12/20 12:17:57;;;;;;;11.27;4.37;;;8.70;94.10;;;;;;5041169;28;21306;-47
2021/12/20 12:20:44;;;;;;;5.73;3.20;;;8.70;93.50;;;;;;5078120;28;20585;-47
2021/12/20 12:23:20;;;;;;;9.07;3.90;;;8.70;92.70;;;;;;5068685;28;20480;-47
2021/12/20 12:25:50;;;;;;;6.63;4.17;;;8.70;93.20;;;;;;5075035;28;20493;-47
2021/12/20 12:28:18;;;;;;;8.70;3.47;;;8.70;92.90;;;;;;5059579;28;20473;-47
2021/12/20 12:30:57;;;;;;;11.43;4.73;;;8.70;93.00;;;;;;5091395;28;20476;-47
2021/12/20 12:33:36;;;;;;;7.27;2.60;;;8.70;92.40;;;;;;5085027;28;20472;-47
2021/12/20 12:36:07;;;;;;;8.53;3.00;;;8.70;92.10;;;;;;5070026;28;20481;-48
2021/12/20 12:38:38;;;;;;;9.87;3.83;;;8.60;92.10;;;;;;5076965;28;21186;-47
2021/12/20 12:41:20;;;;;;;6.70;3.60;;;8.70;92.60;;;;;;5067186;28;23624;-47
2021/12/20 12:43:53;;;;;;;10.07;3.40;;;8.70;92.20;;;;;;5070304;28;20974;-47
2021/12/20 12:46:43;;;;;;;5.37;3.27;;;8.60;92.40;;;;;;5054580;28;20545;-48
2021/12/20 12:49:31;;;;;;;9.20;3.90;;;8.50;92.60;;;;;;5071462;28;20532;-47
2021/12/20 12:51:59;;;;;;;4.57;3.30;;;8.60;93.10;;;;;;5066781;28;20478;-47
2021/12/20 12:54:39;;;;;;;8.20;3.77;;;8.70;93.10;;;;;;5077680;28;20478;-47
2021/12/20 12:57:32;;;;;;;17.03;4.40;;;8.70;91.80;;;;;;5067361;28;20496;-48
2021/12/20 13:00:14;;;;;;;6.63;3.80;;;8.60;91.40;;;;;;5078205;28;20555;-47
2021/12/20 13:02:42;;;;;;;3.30;2.83;;;8.60;91.40;;;;;;5072642;28;20489;-47
2021/12/20 13:05:14;;;;;;;4.77;1.70;;;8.50;90.40;;;;;;5074602;28;20485;-47
2021/12/20 13:07:47;;;;;;;8.07;2.73;;;8.40;89.90;;;;;;5055403;28;20621;-47
2021/12/20 13:10:18;;;;;;;8.60;2.63;;;8.40;90.20;;;;;;5055929;28;21021;-47
2021/12/20 13:12:50;;;;;;;6.00;2.00;;;8.40;90.90;;;;;;5047879;28;20474;-47